createdAt,value
2019-03-31T00:00:45.146Z,19.33
2019-03-31T00:03:14.606Z,19.80
2019-03-31T00:05:44.097Z,17.67
2019-03-31T00:08:13.622Z,17.00
2019-03-31T00:10:43.144Z,15.37
2019-03-31T00:13:12.710Z,14.43
2019-03-31T00:15:42.131Z,15.10
2019-03-31T00:18:11.508Z,13.33
2019-03-31T00:20:40.943Z,15.30
2019-03-31T00:23:10.452Z,15.23
2019-03-31T00:25:41.518Z,16.17
2019-03-31T00:28:10.975Z,15.37
2019-03-31T00:30:40.543Z,14.73
2019-03-31T00:33:09.913Z,13.97
2019-03-31T00:35:39.339Z,13.83
2019-03-31T00:38:08.727Z,13.47
2019-03-31T00:40:38.238Z,14.67
2019-03-31T00:43:07.695Z,15.00
2019-03-31T00:45:38.652Z,14.67
2019-03-31T00:48:08.129Z,14.27
2019-03-31T00:50:37.559Z,14.20
2019-03-31T00:53:07.023Z,14.77
2019-03-31T00:55:36.457Z,14.83
2019-03-31T00:58:06.166Z,14.73
2019-03-31T01:00:46.988Z,15.20
2019-03-31T01:03:20.659Z,14.33
2019-03-31T01:05:51.153Z,14.17
2019-03-31T01:08:22.593Z,15.37
2019-03-31T01:10:52.151Z,14.67
2019-03-31T01:13:21.680Z,16.57
2019-03-31T01:15:52.827Z,15.80
2019-03-31T01:18:22.589Z,16.00
2019-03-31T01:20:52.076Z,17.33
2019-03-31T01:23:21.450Z,14.90
2019-03-31T01:25:51.213Z,15.00
2019-03-31T01:28:21.497Z,14.27
2019-03-31T01:30:50.989Z,15.03
2019-03-31T01:33:20.814Z,14.53
2019-03-31T01:35:50.345Z,13.20
2019-03-31T01:38:19.958Z,13.90
2019-03-31T01:40:49.463Z,12.73
2019-03-31T01:43:19.167Z,11.43
2019-03-31T01:45:48.774Z,11.80
2019-03-31T01:48:18.231Z,10.90
2019-03-31T01:50:47.671Z,10.87
2019-03-31T01:53:17.142Z,10.80
2019-03-31T01:55:46.601Z,10.70
2019-03-31T01:58:16.100Z,10.03
2019-03-31T02:00:47.372Z,10.83
2019-03-31T02:03:17.252Z,9.90
2019-03-31T02:05:46.769Z,9.07
2019-03-31T02:08:16.280Z,9.50
2019-03-31T02:10:45.741Z,9.30
2019-03-31T02:13:15.172Z,9.00
2019-03-31T02:15:44.715Z,8.50
2019-03-31T02:18:14.142Z,8.30
2019-03-31T02:20:43.593Z,8.67
2019-03-31T02:23:13.029Z,8.00
2019-03-31T02:25:42.545Z,7.73
2019-03-31T02:28:11.969Z,7.67
2019-03-31T02:30:41.480Z,7.30
2019-03-31T02:33:10.901Z,6.17
2019-03-31T02:35:40.324Z,7.27
2019-03-31T02:38:10.846Z,6.70
2019-03-31T02:40:40.297Z,6.90
2019-03-31T02:43:09.720Z,6.60
2019-03-31T02:45:39.617Z,7.30
2019-03-31T02:48:09.722Z,5.90
2019-03-31T02:50:48.543Z,6.47
2019-03-31T02:53:19.425Z,6.50
2019-03-31T02:55:49.605Z,6.80
2019-03-31T02:58:19.616Z,5.83
2019-03-31T03:00:49.738Z,6.00
2019-03-31T03:03:20.072Z,5.40
2019-03-31T03:05:49.880Z,5.17
2019-03-31T03:08:20.145Z,4.63
2019-03-31T03:10:52.588Z,4.13
2019-03-31T03:13:24.725Z,4.37
2019-03-31T03:15:57.237Z,4.30
2019-03-31T03:18:26.725Z,3.80
2019-03-31T03:20:56.157Z,3.63
2019-03-31T03:23:25.572Z,3.97
2019-03-31T03:25:56.751Z,3.57
2019-03-31T03:28:26.002Z,3.60
2019-03-31T03:30:55.749Z,3.67
2019-03-31T03:33:25.302Z,3.83
2019-03-31T03:35:54.720Z,3.60
2019-03-31T03:38:24.200Z,3.70
2019-03-31T03:40:53.626Z,3.37
2019-03-31T03:43:23.063Z,3.37
2019-03-31T03:45:52.506Z,3.03
2019-03-31T03:48:21.919Z,2.90
2019-03-31T03:50:52.450Z,3.50
2019-03-31T03:53:21.853Z,2.67
2019-03-31T03:55:51.325Z,2.13
2019-03-31T03:58:20.733Z,2.13
2019-03-31T04:00:50.295Z,2.00
2019-03-31T04:03:29.841Z,2.03
2019-03-31T04:05:50.766Z,2.30
2019-03-31T04:08:20.192Z,1.80
2019-03-31T04:10:53.749Z,2.10
2019-03-31T04:13:23.181Z,1.83
2019-03-31T04:15:52.989Z,2.17
2019-03-31T04:18:22.417Z,1.80
2019-03-31T04:20:51.836Z,2.10
2019-03-31T04:23:21.291Z,2.63
2019-03-31T04:25:50.716Z,2.43
2019-03-31T04:28:20.149Z,1.90
2019-03-31T04:30:49.583Z,2.47
2019-03-31T04:33:19.035Z,2.30
2019-03-31T04:35:48.526Z,2.30
2019-03-31T04:38:17.982Z,2.27
2019-03-31T04:40:47.416Z,2.20
2019-03-31T04:43:17.963Z,2.30
2019-03-31T04:45:47.384Z,2.23
2019-03-31T04:48:17.916Z,2.50
2019-03-31T04:50:47.333Z,2.20
2019-03-31T04:53:16.762Z,2.80
2019-03-31T04:55:46.204Z,2.37
2019-03-31T04:58:15.864Z,2.90
2019-03-31T05:00:45.989Z,2.60
2019-03-31T05:03:18.810Z,2.40
2019-03-31T05:05:48.263Z,2.23
2019-03-31T05:08:17.668Z,3.10
2019-03-31T05:10:47.102Z,2.83
2019-03-31T05:13:16.496Z,2.83
2019-03-31T05:15:46.493Z,3.27
2019-03-31T05:18:16.624Z,3.10
2019-03-31T05:20:46.728Z,2.50
2019-03-31T05:23:16.821Z,2.90
2019-03-31T05:25:47.156Z,3.70
2019-03-31T05:28:16.891Z,2.67
2019-03-31T05:30:46.987Z,2.93
2019-03-31T05:33:17.127Z,2.73
2019-03-31T05:35:47.296Z,2.47
2019-03-31T05:38:17.238Z,2.43
2019-03-31T05:40:47.325Z,3.07
2019-03-31T05:43:17.498Z,2.90
2019-03-31T05:45:47.544Z,2.27
2019-03-31T05:48:17.724Z,2.70
2019-03-31T05:50:47.734Z,3.23
2019-03-31T05:53:17.747Z,2.30
2019-03-31T05:55:48.124Z,2.63
2019-03-31T05:58:17.971Z,2.70
2019-03-31T06:00:48.432Z,2.80
2019-03-31T06:03:18.187Z,3.17
2019-03-31T06:05:48.847Z,2.57
2019-03-31T06:08:18.448Z,3.00
2019-03-31T06:10:48.507Z,2.87
2019-03-31T06:13:18.721Z,2.65
2019-03-31T06:15:48.646Z,2.77
2019-03-31T06:18:18.824Z,3.23
2019-03-31T06:20:48.915Z,3.23
2019-03-31T06:23:18.955Z,3.50
2019-03-31T06:25:49.039Z,3.40
2019-03-31T06:28:19.177Z,2.73
2019-03-31T06:30:49.180Z,2.90
2019-03-31T06:33:19.706Z,3.57
2019-03-31T06:35:51.304Z,3.70
2019-03-31T06:38:20.771Z,3.40
2019-03-31T06:40:51.860Z,4.30
2019-03-31T06:43:21.268Z,3.17
2019-03-31T06:45:50.709Z,4.33
2019-03-31T06:48:20.160Z,2.90
2019-03-31T06:50:49.914Z,3.53
2019-03-31T06:53:20.329Z,3.57
2019-03-31T06:55:50.366Z,3.97
2019-03-31T06:58:20.881Z,3.80
2019-03-31T07:00:50.917Z,3.37
2019-03-31T07:03:20.717Z,4.27
2019-03-31T07:05:50.892Z,3.60
2019-03-31T07:08:20.915Z,3.37
2019-03-31T07:10:50.982Z,3.63
2019-03-31T07:13:21.155Z,3.53
2019-03-31T07:15:51.195Z,3.53
2019-03-31T07:18:21.195Z,4.08
2019-03-31T07:20:51.417Z,4.22
2019-03-31T07:23:21.415Z,3.97
2019-03-31T07:25:51.473Z,3.80
2019-03-31T07:28:21.561Z,3.50
2019-03-31T07:30:54.373Z,4.27
2019-03-31T07:33:23.827Z,3.63
2019-03-31T07:35:53.255Z,4.20
2019-03-31T07:38:22.730Z,4.17
2019-03-31T07:40:52.467Z,3.53
2019-03-31T07:43:22.105Z,3.53
2019-03-31T07:45:55.626Z,2.90
2019-03-31T07:48:23.249Z,3.67
2019-03-31T07:50:52.670Z,2.93
2019-03-31T07:53:22.117Z,2.87
2019-03-31T07:55:51.638Z,3.30
2019-03-31T07:58:22.142Z,2.73
2019-03-31T08:00:51.573Z,3.00
2019-03-31T08:03:20.989Z,2.77
2019-03-31T08:05:50.374Z,2.43
2019-03-31T08:08:19.805Z,3.23
2019-03-31T08:10:49.245Z,3.47
2019-03-31T08:13:21.655Z,2.90
2019-03-31T08:15:51.095Z,2.53
2019-03-31T08:18:20.549Z,2.87
2019-03-31T08:20:49.967Z,2.70
2019-03-31T08:23:20.468Z,3.37
2019-03-31T08:25:49.835Z,2.37
2019-03-31T08:28:19.409Z,2.43
2019-03-31T08:30:48.829Z,3.03
2019-03-31T08:33:18.170Z,2.40
2019-03-31T08:35:48.000Z,1.87
2019-03-31T08:38:17.501Z,2.43
2019-03-31T08:40:46.941Z,2.30
2019-03-31T08:43:16.380Z,2.13
2019-03-31T08:45:45.822Z,2.43
2019-03-31T08:48:15.244Z,2.40
2019-03-31T08:50:44.685Z,2.70
2019-03-31T08:53:14.106Z,2.50
2019-03-31T08:55:43.549Z,2.70
2019-03-31T08:58:13.056Z,2.83
2019-03-31T09:00:47.317Z,1.70
2019-03-31T09:03:16.772Z,2.53
2019-03-31T09:05:46.212Z,2.87
2019-03-31T09:08:15.625Z,2.73
2019-03-31T09:10:47.061Z,2.17
2019-03-31T09:13:16.568Z,2.67
2019-03-31T09:15:45.950Z,1.93
2019-03-31T09:18:15.375Z,2.30
2019-03-31T09:20:44.793Z,2.10
2019-03-31T09:23:14.162Z,2.30
2019-03-31T09:25:43.585Z,2.43
2019-03-31T09:28:13.014Z,2.60
2019-03-31T09:30:42.504Z,2.17
2019-03-31T09:33:12.001Z,2.57
2019-03-31T09:35:42.414Z,2.37
2019-03-31T09:38:11.863Z,2.90
2019-03-31T09:40:41.296Z,2.50
2019-03-31T09:43:10.752Z,3.00
2019-03-31T09:45:40.176Z,3.10
2019-03-31T09:48:09.605Z,2.97
2019-03-31T09:50:39.067Z,2.77
2019-03-31T09:53:08.514Z,2.40
2019-03-31T09:55:38.022Z,2.40
2019-03-31T09:58:07.469Z,1.87
2019-03-31T10:00:45.867Z,2.17
2019-03-31T10:03:15.448Z,2.57
2019-03-31T10:05:47.712Z,2.40
2019-03-31T10:08:17.445Z,2.87
2019-03-31T10:10:46.987Z,2.63
2019-03-31T10:13:16.459Z,2.67
2019-03-31T10:15:47.051Z,2.73
2019-03-31T10:18:18.276Z,2.20
2019-03-31T10:20:47.844Z,2.40
2019-03-31T10:23:17.270Z,3.43
2019-03-31T10:25:46.720Z,3.00
2019-03-31T10:28:17.365Z,2.77
2019-03-31T10:30:46.810Z,2.73
2019-03-31T10:33:16.164Z,3.57
2019-03-31T10:35:45.625Z,2.50
2019-03-31T10:38:15.118Z,2.97
2019-03-31T10:40:44.570Z,3.60
2019-03-31T10:43:13.949Z,3.13
2019-03-31T10:45:43.529Z,3.40
2019-03-31T10:48:20.432Z,3.10
2019-03-31T10:50:44.086Z,2.97
2019-03-31T10:53:13.547Z,3.43
2019-03-31T10:55:43.129Z,3.00
2019-03-31T10:58:13.674Z,2.87
2019-03-31T11:00:44.715Z,3.53
2019-03-31T11:03:14.422Z,2.93
2019-03-31T11:05:43.850Z,3.17
2019-03-31T11:08:13.386Z,3.07
2019-03-31T11:10:42.888Z,2.83
2019-03-31T11:13:12.428Z,2.70
2019-03-31T11:15:41.943Z,2.70
2019-03-31T11:18:11.331Z,3.27
2019-03-31T11:20:40.924Z,2.73
2019-03-31T11:23:21.202Z,3.07
2019-03-31T11:25:50.707Z,2.83
2019-03-31T11:28:20.242Z,2.17
2019-03-31T11:30:49.660Z,2.83
2019-03-31T11:33:19.123Z,2.17
2019-03-31T11:35:48.584Z,2.03
2019-03-31T11:38:19.336Z,2.57
2019-03-31T11:40:48.744Z,3.20
2019-03-31T11:43:18.274Z,2.60
2019-03-31T11:45:48.767Z,2.70
2019-03-31T11:48:18.368Z,2.70
2019-03-31T11:50:47.823Z,2.70
2019-03-31T11:53:17.331Z,2.93
2019-03-31T11:55:46.775Z,2.77
2019-03-31T11:58:16.210Z,2.57
2019-03-31T12:00:53.282Z,2.93
2019-03-31T12:03:22.712Z,3.13
2019-03-31T12:05:52.252Z,3.00
2019-03-31T12:08:21.772Z,2.87
2019-03-31T12:10:51.362Z,2.70
2019-03-31T12:13:20.800Z,2.67
2019-03-31T12:15:50.324Z,2.13
2019-03-31T12:18:19.830Z,2.57
2019-03-31T12:20:50.242Z,2.47
2019-03-31T12:23:20.973Z,2.63
2019-03-31T12:25:51.471Z,2.10
2019-03-31T12:28:20.830Z,2.43
2019-03-31T12:30:50.279Z,2.90
2019-03-31T12:33:19.708Z,2.63
2019-03-31T12:35:49.164Z,2.90
2019-03-31T12:38:18.598Z,2.20
2019-03-31T12:40:48.116Z,2.50
2019-03-31T12:43:17.578Z,2.60
2019-03-31T12:45:47.086Z,2.15
2019-03-31T12:48:16.550Z,2.53
2019-03-31T12:50:45.968Z,2.20
2019-03-31T12:53:15.421Z,2.00
2019-03-31T12:55:54.044Z,2.17
2019-03-31T12:58:15.936Z,2.30
2019-03-31T13:00:46.697Z,2.00
2019-03-31T13:03:16.589Z,2.50
2019-03-31T13:05:46.086Z,2.67
2019-03-31T13:08:15.548Z,2.37
2019-03-31T13:10:44.977Z,2.57
2019-03-31T13:13:14.483Z,2.77
2019-03-31T13:15:44.052Z,2.17
2019-03-31T13:18:13.588Z,2.40
2019-03-31T13:20:44.020Z,2.47
2019-03-31T13:23:13.486Z,2.30
2019-03-31T13:25:42.908Z,2.27
2019-03-31T13:28:12.368Z,2.10
2019-03-31T13:30:41.808Z,2.57
2019-03-31T13:33:11.258Z,1.97
2019-03-31T13:35:40.695Z,2.30
2019-03-31T13:38:11.570Z,2.30
2019-03-31T13:40:41.342Z,2.30
2019-03-31T13:43:10.762Z,2.47
2019-03-31T13:45:40.210Z,2.00
2019-03-31T13:48:09.666Z,2.10
2019-03-31T13:50:39.018Z,1.83
2019-03-31T13:53:08.410Z,2.10
2019-03-31T13:55:38.211Z,2.80
2019-03-31T13:58:09.034Z,1.90
2019-03-31T14:00:40.985Z,2.40
2019-03-31T14:03:10.594Z,1.80
2019-03-31T14:05:40.757Z,1.47
2019-03-31T14:08:24.628Z,1.90
2019-03-31T14:10:41.189Z,2.10
2019-03-31T14:13:10.653Z,1.80
2019-03-31T14:15:40.078Z,1.87
2019-03-31T14:18:09.582Z,1.77
2019-03-31T14:20:39.257Z,1.50
2019-03-31T14:23:09.785Z,1.80
2019-03-31T14:25:39.502Z,1.93
2019-03-31T14:28:09.519Z,2.10
2019-03-31T14:30:39.615Z,1.97
2019-03-31T14:33:09.797Z,1.73
2019-03-31T14:35:39.802Z,2.03
2019-03-31T14:38:09.855Z,1.80
2019-03-31T14:40:40.980Z,2.03
2019-03-31T14:43:12.146Z,2.10
2019-03-31T14:45:42.628Z,2.27
2019-03-31T14:48:12.062Z,2.10
2019-03-31T14:50:41.653Z,1.97
2019-03-31T14:53:11.316Z,1.93
2019-03-31T14:55:40.794Z,1.73
2019-03-31T14:58:10.526Z,2.07
2019-03-31T15:00:41.098Z,1.60
2019-03-31T15:03:10.652Z,1.70
2019-03-31T15:05:40.787Z,2.00
2019-03-31T15:08:12.607Z,1.53
2019-03-31T15:10:42.019Z,2.23
2019-03-31T15:13:11.461Z,1.60
2019-03-31T15:15:41.989Z,2.03
2019-03-31T15:18:11.437Z,2.10
2019-03-31T15:20:41.452Z,1.87
2019-03-31T15:23:11.495Z,1.90
2019-03-31T15:25:43.304Z,1.80
2019-03-31T15:28:12.912Z,1.60
2019-03-31T15:30:42.418Z,1.50
2019-03-31T15:33:13.551Z,2.03
2019-03-31T15:35:43.275Z,2.00
2019-03-31T15:38:12.703Z,1.77
2019-03-31T15:40:42.202Z,2.23
2019-03-31T15:43:12.220Z,1.70
2019-03-31T15:45:42.738Z,2.20
2019-03-31T15:48:12.679Z,2.17
2019-03-31T15:50:42.668Z,2.00
2019-03-31T15:53:12.884Z,2.30
2019-03-31T15:55:42.915Z,2.80
2019-03-31T15:58:13.026Z,2.07
2019-03-31T16:00:43.158Z,1.90
2019-03-31T16:03:13.247Z,1.83
2019-03-31T16:05:43.280Z,1.90
2019-03-31T16:08:13.455Z,1.63
2019-03-31T16:10:45.035Z,2.00
2019-03-31T16:13:14.545Z,1.87
2019-03-31T16:15:44.006Z,1.80
2019-03-31T16:18:13.833Z,1.70
2019-03-31T16:20:44.003Z,2.03
2019-03-31T16:23:13.984Z,1.83
2019-03-31T16:25:45.767Z,2.10
2019-03-31T16:28:15.266Z,2.20
2019-03-31T16:30:46.332Z,1.90
2019-03-31T16:33:16.839Z,1.80
2019-03-31T16:35:47.827Z,1.83
2019-03-31T16:38:17.324Z,1.73
2019-03-31T16:40:46.771Z,1.70
2019-03-31T16:43:16.221Z,1.90
2019-03-31T16:45:45.720Z,1.60
2019-03-31T16:48:15.244Z,1.90
2019-03-31T16:50:46.752Z,1.97
2019-03-31T16:53:16.300Z,2.10
2019-03-31T16:55:45.784Z,1.97
2019-03-31T16:58:15.401Z,2.43
2019-03-31T17:00:45.323Z,1.67
2019-03-31T17:03:18.267Z,2.23
2019-03-31T17:05:46.671Z,2.00
2019-03-31T17:08:16.195Z,2.23
2019-03-31T17:10:45.910Z,1.80
2019-03-31T17:13:17.786Z,2.40
2019-03-31T17:15:47.222Z,2.60
2019-03-31T17:18:18.430Z,2.67
2019-03-31T17:20:47.918Z,2.57
2019-03-31T17:23:17.374Z,2.30
2019-03-31T17:25:47.556Z,1.77
2019-03-31T17:28:17.775Z,1.90
2019-03-31T17:30:47.258Z,2.10
2019-03-31T17:33:16.716Z,1.90
2019-03-31T17:35:46.681Z,2.30
2019-03-31T17:38:16.772Z,2.40
2019-03-31T17:40:47.255Z,2.33
2019-03-31T17:43:16.901Z,2.63
2019-03-31T17:45:47.044Z,1.50
2019-03-31T17:48:17.114Z,2.70
2019-03-31T17:50:47.727Z,2.50
2019-03-31T17:53:18.506Z,2.60
2019-03-31T17:55:49.320Z,2.20
2019-03-31T17:58:19.265Z,2.17
2019-03-31T18:00:48.720Z,3.53
2019-03-31T18:03:19.366Z,2.47
2019-03-31T18:05:50.332Z,2.83
2019-03-31T18:08:19.782Z,2.87
2019-03-31T18:10:49.663Z,2.67
2019-03-31T18:13:23.119Z,2.83
2019-03-31T18:15:54.662Z,1.90
2019-03-31T18:18:25.742Z,2.60
2019-03-31T18:20:55.220Z,2.73
2019-03-31T18:23:24.706Z,2.23
2019-03-31T18:25:54.152Z,2.40
2019-03-31T18:28:23.613Z,3.00
2019-03-31T18:30:56.116Z,2.90
2019-03-31T18:33:25.662Z,2.33
2019-03-31T18:35:56.182Z,3.17
2019-03-31T18:38:25.735Z,2.70
2019-03-31T18:40:55.897Z,3.03
2019-03-31T18:43:28.035Z,2.03
2019-03-31T18:45:57.551Z,3.47
2019-03-31T18:48:27.073Z,3.10
2019-03-31T18:50:56.590Z,2.37
2019-03-31T18:53:31.480Z,2.70
2019-03-31T18:56:02.575Z,2.70
2019-03-31T18:58:48.839Z,2.40
2019-03-31T19:01:20.032Z,3.33
2019-03-31T19:03:55.731Z,3.60
2019-03-31T19:06:29.490Z,3.77
2019-03-31T19:09:13.215Z,3.57
2019-03-31T19:12:00.896Z,3.37
2019-03-31T19:14:44.340Z,4.03
2019-03-31T19:17:18.202Z,3.70
2019-03-31T19:19:50.844Z,4.53
2019-03-31T19:22:27.921Z,4.20
2019-03-31T19:25:17.842Z,4.20
2019-03-31T19:28:09.395Z,3.87
2019-03-31T19:30:46.467Z,4.20
2019-03-31T19:33:27.259Z,4.00
2019-03-31T19:35:58.871Z,3.83
2019-03-31T19:38:47.967Z,3.50
2019-03-31T19:41:20.380Z,3.57
2019-03-31T19:43:55.228Z,4.43
2019-03-31T19:46:32.450Z,3.93
2019-03-31T19:49:09.824Z,3.80
2019-03-31T19:51:47.108Z,3.67
2019-03-31T19:54:18.229Z,4.07
2019-03-31T19:56:50.496Z,4.10
2019-03-31T19:59:36.945Z,3.07
2019-03-31T20:02:08.128Z,3.30
2019-03-31T20:04:45.258Z,3.23
2019-03-31T20:07:16.443Z,2.80
2019-03-31T20:10:04.544Z,2.73
2019-03-31T20:12:52.140Z,3.45
2019-03-31T20:15:23.298Z,2.67
2019-03-31T20:18:13.356Z,3.57
2019-03-31T20:20:47.771Z,3.63
2019-03-31T20:23:25.648Z,2.87
2019-03-31T20:26:13.429Z,3.17
2019-03-31T20:28:45.089Z,2.90
2019-03-31T20:31:19.136Z,2.77
2019-03-31T20:33:56.160Z,2.50
2019-03-31T20:36:43.978Z,2.67
2019-03-31T20:39:15.077Z,2.03
2019-03-31T20:42:02.504Z,2.70
2019-03-31T20:44:31.913Z,2.70
2019-03-31T20:47:01.355Z,2.40
2019-03-31T20:49:30.860Z,2.30
2019-03-31T20:52:02.384Z,2.37
2019-03-31T20:54:33.235Z,2.27
2019-03-31T20:57:02.920Z,2.00
2019-03-31T20:59:33.091Z,2.10
2019-03-31T21:02:02.635Z,2.10
2019-03-31T21:04:32.936Z,2.47
2019-03-31T21:07:02.372Z,2.90
2019-03-31T21:09:44.395Z,1.90
2019-03-31T21:12:04.629Z,2.00
2019-03-31T21:14:34.144Z,1.90
2019-03-31T21:17:03.650Z,2.23
2019-03-31T21:19:33.157Z,2.73
2019-03-31T21:22:02.603Z,2.83
2019-03-31T21:24:32.039Z,2.30
2019-03-31T21:27:01.483Z,2.83
2019-03-31T21:29:30.923Z,2.53
2019-03-31T21:32:02.057Z,2.80
2019-03-31T21:34:32.642Z,2.10
2019-03-31T21:37:02.101Z,2.20
2019-03-31T21:39:31.556Z,2.17
2019-03-31T21:42:00.987Z,2.43
2019-03-31T21:44:30.470Z,2.43
2019-03-31T21:47:00.547Z,2.10
2019-03-31T21:49:30.581Z,2.50
2019-03-31T21:52:00.701Z,2.30
2019-03-31T21:54:30.741Z,2.03
2019-03-31T21:57:00.908Z,1.90
2019-03-31T21:59:33.515Z,1.70
2019-03-31T22:02:02.129Z,2.00
2019-03-31T22:04:31.647Z,2.77
2019-03-31T22:07:01.366Z,2.60
2019-03-31T22:09:31.435Z,2.77
2019-03-31T22:12:01.528Z,1.95
2019-03-31T22:14:31.575Z,1.93
2019-03-31T22:17:01.671Z,2.17
2019-03-31T22:19:31.797Z,2.35
2019-03-31T22:22:01.801Z,1.47
2019-03-31T22:24:31.931Z,2.20
2019-03-31T22:27:02.035Z,1.83
2019-03-31T22:29:32.145Z,1.90
2019-03-31T22:32:02.240Z,2.50
2019-03-31T22:34:32.299Z,1.60
2019-03-31T22:37:02.375Z,1.90
2019-03-31T22:39:32.585Z,2.10
2019-03-31T22:42:02.691Z,2.10
2019-03-31T22:44:33.290Z,2.17
2019-03-31T22:47:02.749Z,2.53
2019-03-31T22:49:32.957Z,1.80
2019-03-31T22:52:03.445Z,1.73
2019-03-31T22:54:33.089Z,2.47
2019-03-31T22:57:03.102Z,2.30
2019-03-31T22:59:33.612Z,1.93
2019-03-31T23:02:04.659Z,2.73
2019-03-31T23:04:34.096Z,2.17
2019-03-31T23:07:03.601Z,2.20
2019-03-31T23:09:34.530Z,2.47
2019-03-31T23:12:04.185Z,2.13
2019-03-31T23:14:33.965Z,2.20
2019-03-31T23:17:05.214Z,2.27
2019-03-31T23:19:34.655Z,2.50
2019-03-31T23:22:06.455Z,2.70
2019-03-31T23:24:35.901Z,2.80
2019-03-31T23:27:05.327Z,2.33
2019-03-31T23:29:34.855Z,2.20
2019-03-31T23:32:04.895Z,2.57
2019-03-31T23:34:35.031Z,3.00
2019-03-31T23:37:05.103Z,2.50
2019-03-31T23:39:35.101Z,2.00
2019-03-31T23:42:05.230Z,2.30
2019-03-31T23:44:36.271Z,2.30
2019-03-31T23:47:05.711Z,2.37
2019-03-31T23:49:35.476Z,2.43
2019-03-31T23:52:05.712Z,1.80
2019-03-31T23:54:35.797Z,2.13
2019-03-31T23:57:05.737Z,2.80
2019-03-31T23:59:35.905Z,2.30
